sensor_id;sensor_type;location;lat;lon;timestamp;P1;durP1;ratioP1;P2;durP2;ratioP2
35506;SDS011;36461;52.018;21.036;2024-01-07T00:01:02;10.10;;;6.10;;
35506;SDS011;36461;52.018;21.036;2024-01-07T00:03:51;11.10;;;5.80;;
35506;SDS011;36461;52.018;21.036;2024-01-07T00:06:20;13.50;;;6.50;;
35506;SDS011;36461;52.018;21.036;2024-01-07T00:08:48;11.10;;;5.80;;
35506;SDS011;36461;52.018;21.036;2024-01-07T00:11:16;13.40;;;6.90;;
35506;SDS011;36461;52.018;21.036;2024-01-07T00:13:45;10.30;;;6.10;;
35506;SDS011;36461;52.018;21.036;2024-01-07T00:16:13;11.10;;;6.70;;
35506;SDS011;36461;52.018;21.036;2024-01-07T00:18:42;14.30;;;7.40;;
35506;SDS011;36461;52.018;21.036;2024-01-07T00:21:10;10.30;;;5.50;;
35506;SDS011;36461;52.018;21.036;2024-01-07T00:23:38;11.90;;;5.80;;
35506;SDS011;36461;52.018;21.036;2024-01-07T00:26:06;10.20;;;5.60;;
35506;SDS011;36461;52.018;21.036;2024-01-07T00:28:35;10.30;;;5.60;;
35506;SDS011;36461;52.018;21.036;2024-01-07T00:31:04;10.90;;;5.70;;
35506;SDS011;36461;52.018;21.036;2024-01-07T00:33:34;10.40;;;5.90;;
35506;SDS011;36461;52.018;21.036;2024-01-07T00:36:03;8.80;;;5.50;;
35506;SDS011;36461;52.018;21.036;2024-01-07T00:38:31;10.30;;;5.10;;
35506;SDS011;36461;52.018;21.036;2024-01-07T00:40:59;10.10;;;5.20;;
35506;SDS011;36461;52.018;21.036;2024-01-07T00:43:28;8.40;;;5.00;;
35506;SDS011;36461;52.018;21.036;2024-01-07T00:45:56;8.20;;;4.70;;
35506;SDS011;36461;52.018;21.036;2024-01-07T00:48:24;7.60;;;4.80;;
35506;SDS011;36461;52.018;21.036;2024-01-07T00:50:52;9.50;;;5.40;;
35506;SDS011;36461;52.018;21.036;2024-01-07T00:53:20;9.70;;;5.00;;
35506;SDS011;36461;52.018;21.036;2024-01-07T00:55:49;9.60;;;5.60;;
35506;SDS011;36461;52.018;21.036;2024-01-07T00:58:17;12.60;;;4.80;;
35506;SDS011;36461;52.018;21.036;2024-01-07T01:00:45;9.50;;;5.20;;
35506;SDS011;36461;52.018;21.036;2024-01-07T01:03:13;10.60;;;6.20;;
35506;SDS011;36461;52.018;21.036;2024-01-07T01:05:42;9.20;;;4.90;;
35506;SDS011;36461;52.018;21.036;2024-01-07T01:08:10;8.80;;;5.00;;
35506;SDS011;36461;52.018;21.036;2024-01-07T01:10:38;10.80;;;5.60;;
35506;SDS011;36461;52.018;21.036;2024-01-07T01:13:06;9.00;;;5.00;;
35506;SDS011;36461;52.018;21.036;2024-01-07T01:15:34;10.20;;;5.30;;
35506;SDS011;36461;52.018;21.036;2024-01-07T01:18:03;9.20;;;5.50;;
35506;SDS011;36461;52.018;21.036;2024-01-07T01:20:32;8.90;;;5.60;;
35506;SDS011;36461;52.018;21.036;2024-01-07T01:23:00;8.90;;;5.40;;
35506;SDS011;36461;52.018;21.036;2024-01-07T01:25:28;9.50;;;5.30;;
35506;SDS011;36461;52.018;21.036;2024-01-07T01:27:57;10.40;;;5.70;;
35506;SDS011;36461;52.018;21.036;2024-01-07T01:30:27;7.40;;;5.10;;
35506;SDS011;36461;52.018;21.036;2024-01-07T01:32:58;8.00;;;5.10;;
35506;SDS011;36461;52.018;21.036;2024-01-07T01:35:27;6.60;;;4.00;;
35506;SDS011;36461;52.018;21.036;2024-01-07T01:37:55;8.50;;;4.90;;
35506;SDS011;36461;52.018;21.036;2024-01-07T01:40:23;8.00;;;4.80;;
35506;SDS011;36461;52.018;21.036;2024-01-07T01:42:51;9.20;;;5.20;;
35506;SDS011;36461;52.018;21.036;2024-01-07T01:45:20;8.30;;;5.00;;
35506;SDS011;36461;52.018;21.036;2024-01-07T01:47:48;7.20;;;4.50;;
35506;SDS011;36461;52.018;21.036;2024-01-07T01:50:17;9.10;;;4.90;;
35506;SDS011;36461;52.018;21.036;2024-01-07T01:52:45;9.10;;;4.90;;
35506;SDS011;36461;52.018;21.036;2024-01-07T01:55:14;9.50;;;4.80;;
35506;SDS011;36461;52.018;21.036;2024-01-07T01:57:43;9.10;;;5.30;;
35506;SDS011;36461;52.018;21.036;2024-01-07T02:00:14;10.00;;;5.30;;
35506;SDS011;36461;52.018;21.036;2024-01-07T02:02:42;10.60;;;5.30;;
35506;SDS011;36461;52.018;21.036;2024-01-07T02:05:11;9.30;;;5.50;;
35506;SDS011;36461;52.018;21.036;2024-01-07T02:07:42;11.00;;;5.40;;
35506;SDS011;36461;52.018;21.036;2024-01-07T02:10:10;10.90;;;6.00;;
35506;SDS011;36461;52.018;21.036;2024-01-07T02:12:40;8.30;;;5.40;;
35506;SDS011;36461;52.018;21.036;2024-01-07T02:15:08;11.70;;;6.10;;
35506;SDS011;36461;52.018;21.036;2024-01-07T02:17:37;9.70;;;5.50;;
35506;SDS011;36461;52.018;21.036;2024-01-07T02:20:05;8.60;;;5.20;;
35506;SDS011;36461;52.018;21.036;2024-01-07T02:22:34;8.30;;;5.40;;
35506;SDS011;36461;52.018;21.036;2024-01-07T02:25:02;9.10;;;5.00;;
35506;SDS011;36461;52.018;21.036;2024-01-07T02:27:31;9.30;;;5.90;;
35506;SDS011;36461;52.018;21.036;2024-01-07T02:30:00;9.60;;;5.90;;
35506;SDS011;36461;52.018;21.036;2024-01-07T02:32:29;9.50;;;5.80;;
35506;SDS011;36461;52.018;21.036;2024-01-07T02:35:00;11.40;;;6.40;;
35506;SDS011;36461;52.018;21.036;2024-01-07T02:37:29;10.70;;;5.60;;
35506;SDS011;36461;52.018;21.036;2024-01-07T02:39:57;11.90;;;7.10;;
35506;SDS011;36461;52.018;21.036;2024-01-07T02:42:29;11.10;;;6.20;;
35506;SDS011;36461;52.018;21.036;2024-01-07T02:44:58;12.10;;;6.50;;
35506;SDS011;36461;52.018;21.036;2024-01-07T02:47:26;10.60;;;6.30;;
35506;SDS011;36461;52.018;21.036;2024-01-07T02:49:56;12.20;;;6.20;;
35506;SDS011;36461;52.018;21.036;2024-01-07T02:52:24;11.40;;;5.70;;
35506;SDS011;36461;52.018;21.036;2024-01-07T02:54:52;9.20;;;5.80;;
35506;SDS011;36461;52.018;21.036;2024-01-07T02:57:20;10.60;;;5.60;;
35506;SDS011;36461;52.018;21.036;2024-01-07T02:59:48;8.40;;;5.00;;
35506;SDS011;36461;52.018;21.036;2024-01-07T03:02:16;9.20;;;5.90;;
35506;SDS011;36461;52.018;21.036;2024-01-07T03:04:44;10.70;;;6.10;;
35506;SDS011;36461;52.018;21.036;2024-01-07T03:07:13;9.40;;;5.10;;
35506;SDS011;36461;52.018;21.036;2024-01-07T03:09:41;8.50;;;5.30;;
35506;SDS011;36461;52.018;21.036;2024-01-07T03:12:11;9.60;;;5.70;;
35506;SDS011;36461;52.018;21.036;2024-01-07T03:14:40;8.60;;;5.40;;
35506;SDS011;36461;52.018;21.036;2024-01-07T03:17:11;10.90;;;5.80;;
35506;SDS011;36461;52.018;21.036;2024-01-07T03:19:40;8.50;;;5.00;;
35506;SDS011;36461;52.018;21.036;2024-01-07T03:22:08;9.20;;;5.50;;
35506;SDS011;36461;52.018;21.036;2024-01-07T03:24:37;9.30;;;5.10;;
35506;SDS011;36461;52.018;21.036;2024-01-07T03:27:05;7.90;;;4.90;;
35506;SDS011;36461;52.018;21.036;2024-01-07T03:29:33;8.00;;;4.80;;
35506;SDS011;36461;52.018;21.036;2024-01-07T03:32:01;8.40;;;4.60;;
35506;SDS011;36461;52.018;21.036;2024-01-07T03:34:29;7.20;;;4.60;;
35506;SDS011;36461;52.018;21.036;2024-01-07T03:36:57;6.40;;;4.20;;
35506;SDS011;36461;52.018;21.036;2024-01-07T03:39:26;8.60;;;4.40;;
35506;SDS011;36461;52.018;21.036;2024-01-07T03:41:54;6.20;;;4.00;;
35506;SDS011;36461;52.018;21.036;2024-01-07T03:44:23;7.20;;;4.00;;
35506;SDS011;36461;52.018;21.036;2024-01-07T03:46:51;6.80;;;4.40;;
35506;SDS011;36461;52.018;21.036;2024-01-07T03:49:20;5.20;;;3.70;;
35506;SDS011;36461;52.018;21.036;2024-01-07T03:51:48;5.90;;;3.80;;
35506;SDS011;36461;52.018;21.036;2024-01-07T03:54:16;7.30;;;4.60;;
35506;SDS011;36461;52.018;21.036;2024-01-07T03:56:44;8.80;;;4.40;;
35506;SDS011;36461;52.018;21.036;2024-01-07T03:59:13;6.20;;;4.40;;
35506;SDS011;36461;52.018;21.036;2024-01-07T04:01:41;7.40;;;4.50;;
35506;SDS011;36461;52.018;21.036;2024-01-07T04:04:09;9.30;;;5.60;;
35506;SDS011;36461;52.018;21.036;2024-01-07T04:06:37;7.10;;;4.60;;
35506;SDS011;36461;52.018;21.036;2024-01-07T04:09:05;10.70;;;5.40;;
35506;SDS011;36461;52.018;21.036;2024-01-07T04:11:38;8.80;;;5.30;;
35506;SDS011;36461;52.018;21.036;2024-01-07T04:14:09;11.00;;;6.30;;
35506;SDS011;36461;52.018;21.036;2024-01-07T04:16:37;11.60;;;6.50;;
35506;SDS011;36461;52.018;21.036;2024-01-07T04:19:06;10.00;;;6.40;;
35506;SDS011;36461;52.018;21.036;2024-01-07T04:21:34;11.60;;;6.10;;
35506;SDS011;36461;52.018;21.036;2024-01-07T04:24:04;13.20;;;8.20;;
35506;SDS011;36461;52.018;21.036;2024-01-07T04:26:32;15.10;;;8.70;;
35506;SDS011;36461;52.018;21.036;2024-01-07T04:29:01;14.10;;;8.70;;
35506;SDS011;36461;52.018;21.036;2024-01-07T04:31:29;14.50;;;8.90;;
35506;SDS011;36461;52.018;21.036;2024-01-07T04:33:57;16.00;;;9.30;;
35506;SDS011;36461;52.018;21.036;2024-01-07T04:36:25;16.30;;;10.20;;
35506;SDS011;36461;52.018;21.036;2024-01-07T04:38:54;18.20;;;9.10;;
35506;SDS011;36461;52.018;21.036;2024-01-07T04:41:23;15.30;;;9.00;;
35506;SDS011;36461;52.018;21.036;2024-01-07T04:43:52;12.70;;;8.00;;
35506;SDS011;36461;52.018;21.036;2024-01-07T04:46:20;15.50;;;8.30;;
35506;SDS011;36461;52.018;21.036;2024-01-07T04:48:48;13.70;;;8.30;;
35506;SDS011;36461;52.018;21.036;2024-01-07T04:51:17;11.50;;;7.70;;
35506;SDS011;36461;52.018;21.036;2024-01-07T04:53:45;12.10;;;7.70;;
35506;SDS011;36461;52.018;21.036;2024-01-07T04:56:14;13.10;;;7.90;;
35506;SDS011;36461;52.018;21.036;2024-01-07T04:58:42;15.60;;;8.60;;
35506;SDS011;36461;52.018;21.036;2024-01-07T05:01:10;13.80;;;9.10;;
35506;SDS011;36461;52.018;21.036;2024-01-07T05:03:38;15.80;;;9.10;;
35506;SDS011;36461;52.018;21.036;2024-01-07T05:06:10;13.80;;;8.70;;
35506;SDS011;36461;52.018;21.036;2024-01-07T05:08:40;14.90;;;9.00;;
35506;SDS011;36461;52.018;21.036;2024-01-07T05:11:09;13.60;;;8.50;;
35506;SDS011;36461;52.018;21.036;2024-01-07T05:13:37;14.80;;;8.80;;
35506;SDS011;36461;52.018;21.036;2024-01-07T05:16:05;13.00;;;7.60;;
35506;SDS011;36461;52.018;21.036;2024-01-07T05:18:34;16.30;;;9.00;;
35506;SDS011;36461;52.018;21.036;2024-01-07T05:21:02;15.70;;;9.00;;
35506;SDS011;36461;52.018;21.036;2024-01-07T05:23:33;14.90;;;8.90;;
35506;SDS011;36461;52.018;21.036;2024-01-07T05:26:02;15.10;;;9.00;;
35506;SDS011;36461;52.018;21.036;2024-01-07T05:28:31;14.50;;;9.00;;
35506;SDS011;36461;52.018;21.036;2024-01-07T05:30:59;15.60;;;9.40;;
35506;SDS011;36461;52.018;21.036;2024-01-07T05:33:27;14.20;;;9.20;;
35506;SDS011;36461;52.018;21.036;2024-01-07T05:35:56;13.80;;;8.80;;
35506;SDS011;36461;52.018;21.036;2024-01-07T05:38:24;14.90;;;9.30;;
35506;SDS011;36461;52.018;21.036;2024-01-07T05:40:52;14.40;;;8.80;;
35506;SDS011;36461;52.018;21.036;2024-01-07T05:43:20;14.00;;;8.90;;
35506;SDS011;36461;52.018;21.036;2024-01-07T05:45:48;13.10;;;8.70;;
35506;SDS011;36461;52.018;21.036;2024-01-07T05:48:17;13.80;;;8.20;;
35506;SDS011;36461;52.018;21.036;2024-01-07T05:50:45;15.80;;;9.50;;
35506;SDS011;36461;52.018;21.036;2024-01-07T05:53:13;12.90;;;8.70;;
35506;SDS011;36461;52.018;21.036;2024-01-07T05:55:41;12.70;;;8.10;;
35506;SDS011;36461;52.018;21.036;2024-01-07T05:58:10;11.90;;;7.30;;
35506;SDS011;36461;52.018;21.036;2024-01-07T06:00:39;13.40;;;8.60;;
35506;SDS011;36461;52.018;21.036;2024-01-07T06:03:07;13.70;;;8.70;;
35506;SDS011;36461;52.018;21.036;2024-01-07T06:05:39;14.00;;;8.40;;
35506;SDS011;36461;52.018;21.036;2024-01-07T06:08:09;14.00;;;8.90;;
35506;SDS011;36461;52.018;21.036;2024-01-07T06:10:38;13.60;;;9.20;;
35506;SDS011;36461;52.018;21.036;2024-01-07T06:13:07;14.30;;;8.70;;
35506;SDS011;36461;52.018;21.036;2024-01-07T06:15:35;14.20;;;8.70;;
35506;SDS011;36461;52.018;21.036;2024-01-07T06:18:04;15.80;;;9.40;;
35506;SDS011;36461;52.018;21.036;2024-01-07T06:20:32;13.70;;;8.60;;
35506;SDS011;36461;52.018;21.036;2024-01-07T06:23:00;15.30;;;8.60;;
35506;SDS011;36461;52.018;21.036;2024-01-07T06:25:29;14.40;;;9.50;;
35506;SDS011;36461;52.018;21.036;2024-01-07T06:27:57;14.50;;;8.80;;
35506;SDS011;36461;52.018;21.036;2024-01-07T06:30:26;11.00;;;7.60;;
35506;SDS011;36461;52.018;21.036;2024-01-07T06:32:54;13.80;;;8.40;;
35506;SDS011;36461;52.018;21.036;2024-01-07T06:35:23;12.30;;;7.20;;
35506;SDS011;36461;52.018;21.036;2024-01-07T06:37:51;15.40;;;8.50;;
35506;SDS011;36461;52.018;21.036;2024-01-07T06:40:20;13.50;;;8.30;;
35506;SDS011;36461;52.018;21.036;2024-01-07T06:42:48;15.20;;;8.70;;
35506;SDS011;36461;52.018;21.036;2024-01-07T06:45:16;13.60;;;8.40;;
35506;SDS011;36461;52.018;21.036;2024-01-07T06:47:45;14.80;;;8.60;;
35506;SDS011;36461;52.018;21.036;2024-01-07T06:50:14;14.70;;;8.90;;
35506;SDS011;36461;52.018;21.036;2024-01-07T06:52:42;14.20;;;9.10;;
35506;SDS011;36461;52.018;21.036;2024-01-07T06:55:10;14.90;;;9.20;;
35506;SDS011;36461;52.018;21.036;2024-01-07T06:57:39;15.40;;;9.30;;
35506;SDS011;36461;52.018;21.036;2024-01-07T07:00:08;14.30;;;9.00;;
35506;SDS011;36461;52.018;21.036;2024-01-07T07:02:36;13.10;;;8.60;;
35506;SDS011;36461;52.018;21.036;2024-01-07T07:05:04;12.60;;;7.40;;
35506;SDS011;36461;52.018;21.036;2024-01-07T07:07:33;13.80;;;7.70;;
35506;SDS011;36461;52.018;21.036;2024-01-07T07:10:02;12.20;;;7.90;;
35506;SDS011;36461;52.018;21.036;2024-01-07T07:12:31;15.00;;;8.70;;
35506;SDS011;36461;52.018;21.036;2024-01-07T07:14:59;12.30;;;7.50;;
35506;SDS011;36461;52.018;21.036;2024-01-07T07:17:28;14.10;;;9.50;;
35506;SDS011;36461;52.018;21.036;2024-01-07T07:19:56;15.00;;;9.30;;
35506;SDS011;36461;52.018;21.036;2024-01-07T07:22:26;14.00;;;9.20;;
35506;SDS011;36461;52.018;21.036;2024-01-07T07:24:54;16.20;;;9.60;;
35506;SDS011;36461;52.018;21.036;2024-01-07T07:27:26;15.00;;;9.30;;
35506;SDS011;36461;52.018;21.036;2024-01-07T07:29:54;13.70;;;8.00;;
35506;SDS011;36461;52.018;21.036;2024-01-07T07:32:23;14.20;;;8.40;;
35506;SDS011;36461;52.018;21.036;2024-01-07T07:34:52;17.00;;;9.60;;
35506;SDS011;36461;52.018;21.036;2024-01-07T07:37:21;14.80;;;9.40;;
35506;SDS011;36461;52.018;21.036;2024-01-07T07:39:49;14.40;;;8.20;;
35506;SDS011;36461;52.018;21.036;2024-01-07T07:42:17;14.60;;;9.00;;
35506;SDS011;36461;52.018;21.036;2024-01-07T07:44:45;13.00;;;8.20;;
35506;SDS011;36461;52.018;21.036;2024-01-07T07:47:14;12.90;;;8.20;;
35506;SDS011;36461;52.018;21.036;2024-01-07T07:49:42;19.50;;;11.70;;
35506;SDS011;36461;52.018;21.036;2024-01-07T07:52:11;16.80;;;10.60;;
35506;SDS011;36461;52.018;21.036;2024-01-07T07:54:42;12.10;;;8.30;;
35506;SDS011;36461;52.018;21.036;2024-01-07T07:57:10;13.20;;;8.80;;
35506;SDS011;36461;52.018;21.036;2024-01-07T07:59:39;14.40;;;9.30;;
35506;SDS011;36461;52.018;21.036;2024-01-07T08:02:07;12.50;;;8.20;;
35506;SDS011;36461;52.018;21.036;2024-01-07T08:04:36;10.90;;;7.20;;
35506;SDS011;36461;52.018;21.036;2024-01-07T08:07:05;12.30;;;7.80;;
35506;SDS011;36461;52.018;21.036;2024-01-07T08:09:33;13.20;;;7.80;;
35506;SDS011;36461;52.018;21.036;2024-01-07T08:12:01;11.10;;;7.60;;
35506;SDS011;36461;52.018;21.036;2024-01-07T08:14:29;14.00;;;9.60;;
35506;SDS011;36461;52.018;21.036;2024-01-07T08:16:59;13.60;;;8.10;;
35506;SDS011;36461;52.018;21.036;2024-01-07T08:19:27;11.40;;;7.20;;
35506;SDS011;36461;52.018;21.036;2024-01-07T08:21:55;11.40;;;7.10;;
35506;SDS011;36461;52.018;21.036;2024-01-07T08:24:24;9.70;;;6.10;;
35506;SDS011;36461;52.018;21.036;2024-01-07T08:26:52;9.00;;;5.60;;
35506;SDS011;36461;52.018;21.036;2024-01-07T08:29:20;11.10;;;6.60;;
35506;SDS011;36461;52.018;21.036;2024-01-07T08:31:48;12.00;;;6.40;;
35506;SDS011;36461;52.018;21.036;2024-01-07T08:34:17;9.90;;;6.40;;
35506;SDS011;36461;52.018;21.036;2024-01-07T08:36:45;9.70;;;6.30;;
35506;SDS011;36461;52.018;21.036;2024-01-07T08:39:14;9.50;;;6.30;;
35506;SDS011;36461;52.018;21.036;2024-01-07T08:41:42;9.90;;;6.80;;
35506;SDS011;36461;52.018;21.036;2024-01-07T08:44:11;12.50;;;8.10;;
35506;SDS011;36461;52.018;21.036;2024-01-07T08:46:40;11.80;;;7.10;;
35506;SDS011;36461;52.018;21.036;2024-01-07T08:49:08;9.30;;;6.50;;
35506;SDS011;36461;52.018;21.036;2024-01-07T08:51:36;11.30;;;6.50;;
35506;SDS011;36461;52.018;21.036;2024-01-07T08:54:06;10.90;;;7.20;;
35506;SDS011;36461;52.018;21.036;2024-01-07T08:56:34;10.90;;;6.30;;
35506;SDS011;36461;52.018;21.036;2024-01-07T08:59:02;10.50;;;7.40;;
35506;SDS011;36461;52.018;21.036;2024-01-07T09:01:32;11.10;;;6.70;;
35506;SDS011;36461;52.018;21.036;2024-01-07T09:04:00;11.20;;;7.10;;
35506;SDS011;36461;52.018;21.036;2024-01-07T09:06:28;11.20;;;7.40;;
35506;SDS011;36461;52.018;21.036;2024-01-07T09:08:57;10.40;;;7.00;;
35506;SDS011;36461;52.018;21.036;2024-01-07T09:11:25;11.70;;;7.40;;
35506;SDS011;36461;52.018;21.036;2024-01-07T09:13:53;11.50;;;7.50;;
35506;SDS011;36461;52.018;21.036;2024-01-07T09:16:22;13.80;;;7.00;;
35506;SDS011;36461;52.018;21.036;2024-01-07T09:18:50;10.80;;;6.50;;
35506;SDS011;36461;52.018;21.036;2024-01-07T09:21:19;10.10;;;6.30;;
35506;SDS011;36461;52.018;21.036;2024-01-07T09:23:47;8.30;;;6.20;;
35506;SDS011;36461;52.018;21.036;2024-01-07T09:26:15;10.20;;;6.30;;
35506;SDS011;36461;52.018;21.036;2024-01-07T09:28:44;10.20;;;6.10;;
35506;SDS011;36461;52.018;21.036;2024-01-07T09:31:12;9.90;;;6.90;;
35506;SDS011;36461;52.018;21.036;2024-01-07T09:33:41;11.90;;;7.20;;
35506;SDS011;36461;52.018;21.036;2024-01-07T09:36:09;12.20;;;7.00;;
35506;SDS011;36461;52.018;21.036;2024-01-07T09:41:24;10.80;;;6.90;;
35506;SDS011;36461;52.018;21.036;2024-01-07T09:43:52;11.20;;;6.60;;
35506;SDS011;36461;52.018;21.036;2024-01-07T09:46:21;10.30;;;6.40;;
35506;SDS011;36461;52.018;21.036;2024-01-07T09:48:51;10.10;;;6.50;;
35506;SDS011;36461;52.018;21.036;2024-01-07T09:51:21;10.10;;;6.90;;
35506;SDS011;36461;52.018;21.036;2024-01-07T09:53:52;9.90;;;6.70;;
35506;SDS011;36461;52.018;21.036;2024-01-07T09:56:25;11.60;;;7.00;;
35506;SDS011;36461;52.018;21.036;2024-01-07T09:58:55;10.70;;;6.80;;
35506;SDS011;36461;52.018;21.036;2024-01-07T10:01:23;11.70;;;6.70;;
35506;SDS011;36461;52.018;21.036;2024-01-07T10:03:52;9.20;;;6.00;;
35506;SDS011;36461;52.018;21.036;2024-01-07T10:06:20;11.50;;;6.90;;
35506;SDS011;36461;52.018;21.036;2024-01-07T10:08:48;10.30;;;6.60;;
35506;SDS011;36461;52.018;21.036;2024-01-07T10:11:16;9.30;;;6.20;;
35506;SDS011;36461;52.018;21.036;2024-01-07T10:13:45;15.40;;;8.80;;
35506;SDS011;36461;52.018;21.036;2024-01-07T10:16:15;9.90;;;6.70;;
35506;SDS011;36461;52.018;21.036;2024-01-07T10:18:44;10.40;;;6.40;;
35506;SDS011;36461;52.018;21.036;2024-01-07T10:21:12;8.40;;;6.20;;
35506;SDS011;36461;52.018;21.036;2024-01-07T10:23:40;9.90;;;6.20;;
35506;SDS011;36461;52.018;21.036;2024-01-07T10:26:09;10.00;;;6.80;;
35506;SDS011;36461;52.018;21.036;2024-01-07T10:28:50;9.10;;;6.10;;
35506;SDS011;36461;52.018;21.036;2024-01-07T10:31:18;9.10;;;6.20;;
35506;SDS011;36461;52.018;21.036;2024-01-07T10:33:47;12.40;;;6.80;;
35506;SDS011;36461;52.018;21.036;2024-01-07T10:36:17;10.30;;;7.30;;
35506;SDS011;36461;52.018;21.036;2024-01-07T10:38:46;10.80;;;6.90;;
35506;SDS011;36461;52.018;21.036;2024-01-07T10:41:14;9.30;;;6.30;;
35506;SDS011;36461;52.018;21.036;2024-01-07T10:43:43;9.30;;;6.10;;
35506;SDS011;36461;52.018;21.036;2024-01-07T10:46:15;10.70;;;6.50;;
35506;SDS011;36461;52.018;21.036;2024-01-07T10:49:00;8.40;;;6.20;;
35506;SDS011;36461;52.018;21.036;2024-01-07T10:51:40;10.10;;;6.60;;
35506;SDS011;36461;52.018;21.036;2024-01-07T10:54:10;10.20;;;6.90;;
35506;SDS011;36461;52.018;21.036;2024-01-07T10:56:44;10.40;;;6.50;;
35506;SDS011;36461;52.018;21.036;2024-01-07T10:59:16;11.20;;;6.60;;
35506;SDS011;36461;52.018;21.036;2024-01-07T11:01:47;9.80;;;6.10;;
35506;SDS011;36461;52.018;21.036;2024-01-07T11:04:37;9.30;;;5.60;;
35506;SDS011;36461;52.018;21.036;2024-01-07T11:07:15;8.30;;;5.30;;
35506;SDS011;36461;52.018;21.036;2024-01-07T11:09:54;8.60;;;5.50;;
35506;SDS011;36461;52.018;21.036;2024-01-07T11:12:33;9.40;;;6.10;;
35506;SDS011;36461;52.018;21.036;2024-01-07T11:15:01;9.90;;;6.30;;
35506;SDS011;36461;52.018;21.036;2024-01-07T11:17:40;8.70;;;5.90;;
35506;SDS011;36461;52.018;21.036;2024-01-07T11:20:12;10.10;;;6.80;;
35506;SDS011;36461;52.018;21.036;2024-01-07T11:22:46;10.40;;;6.40;;
35506;SDS011;36461;52.018;21.036;2024-01-07T11:25:27;12.00;;;7.40;;
35506;SDS011;36461;52.018;21.036;2024-01-07T11:28:00;11.20;;;6.60;;
35506;SDS011;36461;52.018;21.036;2024-01-07T11:30:31;11.50;;;6.40;;
35506;SDS011;36461;52.018;21.036;2024-01-07T11:33:07;10.60;;;7.20;;
35506;SDS011;36461;52.018;21.036;2024-01-07T11:36:02;11.70;;;7.20;;
35506;SDS011;36461;52.018;21.036;2024-01-07T11:38:30;10.40;;;7.00;;
35506;SDS011;36461;52.018;21.036;2024-01-07T11:40:59;11.00;;;7.40;;
35506;SDS011;36461;52.018;21.036;2024-01-07T11:43:28;11.20;;;7.00;;
35506;SDS011;36461;52.018;21.036;2024-01-07T11:45:57;9.80;;;6.30;;
35506;SDS011;36461;52.018;21.036;2024-01-07T11:48:25;9.30;;;6.30;;
35506;SDS011;36461;52.018;21.036;2024-01-07T11:50:55;9.50;;;6.10;;
35506;SDS011;36461;52.018;21.036;2024-01-07T11:53:23;11.60;;;6.10;;
35506;SDS011;36461;52.018;21.036;2024-01-07T11:55:52;7.80;;;5.60;;
35506;SDS011;36461;52.018;21.036;2024-01-07T11:58:20;8.10;;;5.60;;
35506;SDS011;36461;52.018;21.036;2024-01-07T12:00:48;9.20;;;5.90;;
35506;SDS011;36461;52.018;21.036;2024-01-07T12:03:18;8.20;;;5.90;;
35506;SDS011;36461;52.018;21.036;2024-01-07T12:05:46;9.70;;;6.10;;
35506;SDS011;36461;52.018;21.036;2024-01-07T12:08:15;7.90;;;6.00;;
35506;SDS011;36461;52.018;21.036;2024-01-07T12:10:44;10.10;;;6.50;;
35506;SDS011;36461;52.018;21.036;2024-01-07T12:13:13;11.00;;;6.80;;
35506;SDS011;36461;52.018;21.036;2024-01-07T12:15:42;8.10;;;6.00;;
35506;SDS011;36461;52.018;21.036;2024-01-07T12:18:11;10.50;;;6.40;;
35506;SDS011;36461;52.018;21.036;2024-01-07T12:20:39;10.20;;;6.70;;
35506;SDS011;36461;52.018;21.036;2024-01-07T12:23:07;9.90;;;6.20;;
35506;SDS011;36461;52.018;21.036;2024-01-07T12:25:36;7.70;;;5.30;;
35506;SDS011;36461;52.018;21.036;2024-01-07T12:28:07;9.40;;;6.20;;
35506;SDS011;36461;52.018;21.036;2024-01-07T12:30:37;9.80;;;6.70;;
35506;SDS011;36461;52.018;21.036;2024-01-07T12:33:06;10.50;;;6.60;;
35506;SDS011;36461;52.018;21.036;2024-01-07T12:35:35;8.90;;;6.40;;
35506;SDS011;36461;52.018;21.036;2024-01-07T12:38:04;8.80;;;6.30;;
35506;SDS011;36461;52.018;21.036;2024-01-07T12:40:33;9.90;;;6.70;;
35506;SDS011;36461;52.018;21.036;2024-01-07T12:43:02;9.20;;;7.10;;
35506;SDS011;36461;52.018;21.036;2024-01-07T12:45:31;11.80;;;7.20;;
35506;SDS011;36461;52.018;21.036;2024-01-07T12:48:00;10.10;;;6.60;;
35506;SDS011;36461;52.018;21.036;2024-01-07T12:50:31;11.30;;;7.00;;
35506;SDS011;36461;52.018;21.036;2024-01-07T12:52:59;10.30;;;7.00;;
35506;SDS011;36461;52.018;21.036;2024-01-07T12:55:28;12.20;;;7.40;;
35506;SDS011;36461;52.018;21.036;2024-01-07T12:57:57;11.30;;;7.40;;
35506;SDS011;36461;52.018;21.036;2024-01-07T13:00:26;10.80;;;7.50;;
35506;SDS011;36461;52.018;21.036;2024-01-07T13:02:56;11.30;;;7.30;;
35506;SDS011;36461;52.018;21.036;2024-01-07T13:05:28;12.20;;;8.00;;
35506;SDS011;36461;52.018;21.036;2024-01-07T13:07:57;11.30;;;7.50;;
35506;SDS011;36461;52.018;21.036;2024-01-07T13:10:25;12.50;;;8.10;;
35506;SDS011;36461;52.018;21.036;2024-01-07T13:12:55;11.00;;;7.10;;
35506;SDS011;36461;52.018;21.036;2024-01-07T13:15:34;10.70;;;7.20;;
35506;SDS011;36461;52.018;21.036;2024-01-07T13:18:03;10.00;;;7.00;;
35506;SDS011;36461;52.018;21.036;2024-01-07T13:20:32;11.30;;;7.30;;
35506;SDS011;36461;52.018;21.036;2024-01-07T13:23:00;11.20;;;7.10;;
35506;SDS011;36461;52.018;21.036;2024-01-07T13:25:29;9.60;;;7.00;;
35506;SDS011;36461;52.018;21.036;2024-01-07T13:27:57;11.10;;;7.50;;
35506;SDS011;36461;52.018;21.036;2024-01-07T13:30:27;13.50;;;7.80;;
35506;SDS011;36461;52.018;21.036;2024-01-07T13:32:55;10.60;;;6.60;;
35506;SDS011;36461;52.018;21.036;2024-01-07T13:35:30;11.00;;;7.60;;
35506;SDS011;36461;52.018;21.036;2024-01-07T13:37:58;11.30;;;7.10;;
35506;SDS011;36461;52.018;21.036;2024-01-07T13:47:52;10.50;;;7.20;;
35506;SDS011;36461;52.018;21.036;2024-01-07T13:50:21;11.60;;;7.50;;
35506;SDS011;36461;52.018;21.036;2024-01-07T13:52:50;12.40;;;8.00;;
35506;SDS011;36461;52.018;21.036;2024-01-07T13:55:18;10.70;;;7.60;;
35506;SDS011;36461;52.018;21.036;2024-01-07T13:57:47;12.90;;;8.00;;
35506;SDS011;36461;52.018;21.036;2024-01-07T14:00:15;11.90;;;7.40;;
35506;SDS011;36461;52.018;21.036;2024-01-07T14:02:47;11.70;;;7.60;;
35506;SDS011;36461;52.018;21.036;2024-01-07T14:05:15;10.30;;;7.00;;
35506;SDS011;36461;52.018;21.036;2024-01-07T14:07:47;11.20;;;7.10;;
35506;SDS011;36461;52.018;21.036;2024-01-07T14:10:16;13.60;;;7.80;;
35506;SDS011;36461;52.018;21.036;2024-01-07T14:12:47;10.60;;;7.10;;
35506;SDS011;36461;52.018;21.036;2024-01-07T14:15:15;12.40;;;8.00;;
35506;SDS011;36461;52.018;21.036;2024-01-07T14:17:46;12.40;;;7.50;;
35506;SDS011;36461;52.018;21.036;2024-01-07T14:20:15;11.10;;;7.30;;
35506;SDS011;36461;52.018;21.036;2024-01-07T14:22:43;12.20;;;7.80;;
35506;SDS011;36461;52.018;21.036;2024-01-07T14:25:11;14.30;;;8.20;;
35506;SDS011;36461;52.018;21.036;2024-01-07T14:27:42;13.70;;;8.20;;
35506;SDS011;36461;52.018;21.036;2024-01-07T14:30:12;11.70;;;7.90;;
35506;SDS011;36461;52.018;21.036;2024-01-07T14:32:41;11.90;;;7.30;;
35506;SDS011;36461;52.018;21.036;2024-01-07T14:35:11;12.90;;;8.30;;
35506;SDS011;36461;52.018;21.036;2024-01-07T14:37:41;11.00;;;7.50;;
35506;SDS011;36461;52.018;21.036;2024-01-07T14:40:09;11.70;;;7.40;;
35506;SDS011;36461;52.018;21.036;2024-01-07T14:42:38;11.90;;;7.80;;
35506;SDS011;36461;52.018;21.036;2024-01-07T14:45:06;14.50;;;8.70;;
35506;SDS011;36461;52.018;21.036;2024-01-07T14:47:36;12.20;;;7.60;;